Time;durP1;ratioP1;P1;durP2;ratioP2;P2;SDS_P1;SDS_P2;PMS_P1;PMS_P2;Temp;Humidity;BMP_temperature;BMP_pressure;BME280_temperature;BME280_humidity;BME280_pressure;Samples;Min_cycle;Max_cycle;Signal;HPM_P1;HPM_P2
2022/10/04 08:20:38;;;;;;;10.60;4.55;;;;;;;8.57;100.00;99719.38;5127774;27;20373;-77
2022/10/04 08:23:20;;;;;;;21.77;5.47;;;;;;;8.66;100.00;99723.84;5112756;28;20075;-77
2022/10/04 08:25:57;;;;;;;20.33;4.53;;;;;;;8.81;100.00;99717.88;5084188;28;20049;-77
2022/10/04 08:31:33;;;;;;;8.93;4.10;;;;;;;9.06;100.00;99697.13;5082288;28;20054;-77
2022/10/04 08:34:16;;;;;;;6.82;3.72;;;;;;;9.19;100.00;99685.84;5087278;28;20055;-77
2022/10/04 08:37:02;;;;;;;18.55;5.30;;;;;;;9.51;100.00;99709.53;5080431;28;20716;-77
2022/10/04 08:39:43;;;;;;;12.90;3.80;;;;;;;9.55;100.00;99700.03;5081444;28;20095;-77
2022/10/04 08:42:25;;;;;;;8.38;3.17;;;;;;;9.86;100.00;99715.75;5077574;28;20055;-77
2022/10/04 08:45:31;;;;;;;9.95;3.53;;;;;;;10.00;100.00;99710.69;5083993;28;20044;-78
2022/10/04 08:48:29;;;;;;;12.23;3.20;;;;;;;10.10;100.00;99728.50;5082581;28;20052;-77
2022/10/04 08:51:18;;;;;;;11.05;3.30;;;;;;;10.08;100.00;99697.09;5078188;28;20048;-79
2022/10/04 08:54:22;;;;;;;7.93;2.88;;;;;;;10.37;100.00;99709.34;5086412;28;20048;-78
2022/10/04 08:57:02;;;;;;;8.43;2.28;;;;;;;10.25;100.00;99701.53;5078572;28;20048;-78
2022/10/04 08:59:49;;;;;;;3.42;2.05;;;;;;;10.44;100.00;99711.22;5085171;28;20044;-78
2022/10/04 09:02:53;;;;;;;9.18;2.47;;;;;;;10.50;100.00;99709.69;5083606;28;20714;-78
2022/10/04 09:05:32;;;;;;;4.00;2.03;;;;;;;10.65;100.00;99709.84;5085959;28;20480;-78
2022/10/04 09:08:41;;;;;;;9.57;2.75;;;;;;;10.66;100.00;99692.50;5087466;28;20048;-78
2022/10/04 09:11:28;;;;;;;3.53;2.10;;;;;;;10.79;100.00;99698.28;5078429;28;20403;-78
2022/10/04 09:14:17;;;;;;;8.10;2.25;;;;;;;10.95;100.00;99700.09;5079840;28;20515;-78
2022/10/04 09:16:46;;;;;;;8.88;2.28;;;;;;;11.05;100.00;99699.03;5077592;28;20075;-78
2022/10/04 09:19:29;;;;;;;4.57;2.33;;;;;;;11.09;100.00;99684.91;5081349;28;20051;-78
2022/10/04 09:22:18;;;;;;;3.20;1.88;;;;;;;11.12;100.00;99681.81;5081919;28;20123;-78
2022/10/04 09:25:22;;;;;;;4.43;2.25;;;;;;;11.26;100.00;99693.00;5076164;28;20048;-78
2022/10/04 09:28:14;;;;;;;6.20;1.83;;;;;;;11.32;100.00;99679.56;5077844;28;20048;-79
2022/10/04 09:30:54;;;;;;;6.75;2.00;;;;;;;11.43;100.00;99680.19;5077138;28;20560;-78
2022/10/04 09:33:49;;;;;;;4.72;2.03;;;;;;;11.61;100.00;99688.09;5065928;28;20053;-78
2022/10/04 09:36:31;;;;;;;4.97;1.77;;;;;;;11.77;100.00;99690.72;5054758;28;20076;-79
2022/10/04 09:39:36;;;;;;;6.40;2.33;;;;;;;11.83;100.00;99672.78;5058918;28;20044;-78
2022/10/04 09:42:38;;;;;;;3.03;1.92;;;;;;;11.76;100.00;99677.28;4992094;28;20141;-78
2022/10/04 09:45:29;;;;;;;4.60;2.08;;;;;;;12.04;100.00;99696.69;5071935;28;20060;-78
2022/10/04 09:48:23;;;;;;;8.32;2.53;;;;;;;12.22;100.00;99704.56;5070936;28;20048;-78
2022/10/04 09:51:22;;;;;;;8.15;2.22;;;;;;;12.26;100.00;99696.88;5072682;28;20053;-78
2022/10/04 09:54:03;;;;;;;4.20;2.53;;;;;;;12.33;100.00;99693.22;5056039;28;20053;-78
2022/10/04 09:57:05;;;;;;;8.52;2.33;;;;;;;12.23;99.21;99664.53;5071643;28;20188;-78
2022/10/04 09:59:46;;;;;;;4.75;2.22;;;;;;;12.47;98.23;99694.28;5034197;28;20442;-78
2022/10/04 10:02:55;;;;;;;4.20;2.28;;;;;;;12.64;98.95;99697.72;5064028;28;20048;-78
2022/10/04 10:05:31;;;;;;;5.85;2.03;;;;;;;12.77;95.58;99690.75;5055396;28;20045;-79
2022/10/04 10:08:12;;;;;;;4.88;2.03;;;;;;;12.74;95.12;99673.75;5072849;28;20122;-79
2022/10/04 10:14:02;;;;;;;3.47;1.58;;;;;;;12.93;97.58;99683.28;5005771;28;20153;-78
2022/10/04 10:16:40;;;;;;;7.68;1.98;;;;;;;12.92;94.66;99691.66;5057700;28;20056;-78
2022/10/04 10:19:31;;;;;;;5.47;1.90;;;;;;;12.95;92.78;99696.72;5062691;28;20044;-78
2022/10/04 10:22:16;;;;;;;6.32;2.08;;;;;;;12.96;91.48;99695.66;5053278;28;20452;-78
2022/10/04 10:25:12;;;;;;;6.50;1.83;;;;;;;13.08;93.93;99699.66;5071422;28;20132;-79
2022/10/04 10:28:09;;;;;;;5.78;2.20;;;;;;;12.93;92.83;99683.28;5067361;28;20052;-78
2022/10/04 10:30:49;;;;;;;10.45;1.98;;;;;;;13.07;93.45;99694.38;5042294;28;20048;-79
2022/10/04 10:33:45;;;;;;;6.50;2.50;;;;;;;13.15;95.90;99698.91;5069831;28;20072;-79
2022/10/04 10:36:52;;;;;;;8.70;2.42;;;;;;;13.13;95.34;99679.97;5066238;28;20135;-79
2022/10/04 10:40:08;;;;;;;10.68;2.33;;;;;;;13.23;93.38;99682.41;5064830;28;20059;-78
2022/10/04 10:43:01;;;;;;;5.32;1.90;;;;;;;13.28;94.62;99685.44;5052385;28;20051;-78
2022/10/04 10:45:44;;;;;;;10.15;2.92;;;;;;;13.33;92.15;99695.78;5071115;28;20051;-78
2022/10/04 10:48:16;;;;;;;7.05;3.05;;;;;;;13.33;93.64;99665.75;5064206;28;20057;-78
2022/10/04 10:51:02;;;;;;;4.03;2.00;;;;;;;13.55;94.23;99685.78;5063226;28;20064;-78
2022/10/04 10:54:08;;;;;;;5.95;1.80;;;;;;;13.73;92.86;99688.94;5068420;28;20052;-78
2022/10/04 10:56:44;;;;;;;3.47;2.08;;;;;;;13.70;90.89;99677.53;5051848;28;20053;-78
2022/10/04 11:00:04;;;;;;;6.85;2.10;;;;;;;13.83;90.00;99680.44;5054472;28;20049;-78
2022/10/04 11:02:54;;;;;;;8.00;2.25;;;;;;;13.95;87.48;99665.19;4984238;28;20061;-78
2022/10/04 11:05:56;;;;;;;6.22;2.20;;;;;;;14.12;87.64;99676.75;4989049;28;20501;-79
2022/10/04 11:08:56;;;;;;;7.25;2.47;;;;;;;14.20;86.54;99655.78;5016485;28;20496;-78
2022/10/04 11:11:44;;;;;;;7.37;1.90;;;;;;;14.29;83.24;99652.69;5055431;28;20114;-79
2022/10/04 11:14:42;;;;;;;5.38;1.85;;;;;;;14.46;85.07;99647.78;5062302;28;20048;-78
2022/10/04 11:17:24;;;;;;;5.28;1.73;;;;;;;14.73;83.32;99656.22;5062610;28;20268;-78
2022/10/04 11:20:24;;;;;;;6.30;2.30;;;;;;;14.63;81.06;99647.53;5070986;28;20051;-78
2022/10/04 11:23:45;;;;;;;2.80;1.50;;;;;;;14.61;78.15;99633.19;5053320;28;20049;-79
2022/10/04 11:26:54;;;;;;;6.45;2.08;;;;;;;14.91;79.64;99624.75;5066632;28;20056;-78
2022/10/04 11:29:34;;;;;;;3.30;1.50;;;;;;;15.24;78.87;99640.53;5069695;28;20044;-79
2022/10/04 11:32:29;;;;;;;4.20;1.95;;;;;;;15.28;80.35;99623.47;5067737;28;20147;-77
2022/10/04 11:35:35;;;;;;;7.68;1.98;;;;;;;15.48;80.83;99630.91;5068178;28;20048;-78
2022/10/04 11:38:12;;;;;;;4.95;1.65;;;;;;;15.45;79.51;99613.00;5067465;28;20076;-78
2022/10/04 11:41:07;;;;;;;4.45;1.60;;;;;;;15.55;75.61;99624.41;5065070;28;20052;-79
2022/10/04 11:43:51;;;;;;;5.60;1.65;;;;;;;15.74;76.66;99621.91;5065721;28;20063;-79
2022/10/04 11:46:28;;;;;;;2.20;1.40;;;;;;;15.80;74.17;99614.81;5056490;28;20492;-79
2022/10/04 11:49:11;;;;;;;5.45;1.70;;;;;;;15.90;73.11;99605.09;5070447;28;20078;-79
2022/10/04 11:52:26;;;;;;;6.25;1.60;;;;;;;16.07;74.53;99602.78;5068823;28;20056;-79
2022/10/04 11:55:30;;;;;;;11.27;1.73;;;;;;;16.19;71.02;99624.97;5062632;28;20044;-79
2022/10/04 11:58:04;;;;;;;3.67;1.63;;;;;;;16.36;72.72;99606.16;5070600;28;20555;-79
2022/10/04 12:00:53;;;;;;;6.50;1.60;;;;;;;16.23;70.45;99600.72;5068668;28;20132;-79
2022/10/04 12:03:42;;;;;;;8.43;1.50;;;;;;;16.27;71.57;99590.97;5067936;28;20044;-79
2022/10/04 12:06:22;;;;;;;5.97;1.90;;;;;;;16.33;72.99;99600.28;5051704;28;20311;-79
2022/10/04 12:09:03;;;;;;;7.85;1.70;;;;;;;16.34;72.50;99599.22;5062264;28;20083;-79
2022/10/04 12:14:57;;;;;;;4.15;1.50;;;;;;;16.52;71.40;99604.06;5064455;28;20145;-79
2022/10/04 12:18:12;;;;;;;4.70;1.77;;;;;;;16.58;70.26;99601.28;5067677;28;20052;-79
2022/10/04 12:21:03;;;;;;;2.50;1.35;;;;;;;16.57;72.01;99577.66;5021626;28;20131;-79
2022/10/04 12:23:52;;;;;;;3.92;1.40;;;;;;;16.52;67.01;99582.94;5059833;28;20052;-79
2022/10/04 12:26:42;;;;;;;8.95;1.55;;;;;;;16.48;69.71;99573.44;5063657;28;20060;-79
2022/10/04 12:29:31;;;;;;;4.33;1.37;;;;;;;16.54;71.89;99585.47;5064026;28;20053;-79
2022/10/04 12:32:04;;;;;;;5.07;2.97;;;;;;;16.52;72.01;99593.91;5066069;28;20387;-79
2022/10/04 12:34:39;;;;;;;5.40;1.90;;;;;;;16.42;69.23;99572.41;5064584;28;20045;-79
2022/10/04 12:37:16;;;;;;;4.13;1.33;;;;;;;16.54;70.10;99569.84;5064920;28;20045;-79
2022/10/04 12:40:03;;;;;;;4.90;1.55;;;;;;;16.72;68.91;99568.34;5062488;28;20403;-79
2022/10/04 12:42:44;;;;;;;4.05;1.20;;;;;;;16.72;68.83;99554.59;5070255;28;20389;-79
2022/10/04 12:45:27;;;;;;;4.40;1.35;;;;;;;16.83;67.54;99575.06;5063968;28;20101;-79
2022/10/04 12:48:08;;;;;;;3.10;1.25;;;;;;;16.86;66.91;99556.25;5060016;28;20048;-80
2022/10/04 12:50:52;;;;;;;7.07;1.63;;;;;;;16.92;67.34;99566.41;5069640;28;20048;-79
2022/10/04 12:53:33;;;;;;;3.85;1.40;;;;;;;16.94;66.65;99566.19;5064220;28;20052;-79
2022/10/04 12:56:07;;;;;;;8.57;1.60;;;;;;;17.07;67.02;99568.03;5068515;28;20076;-79
2022/10/04 12:58:50;;;;;;;4.07;1.80;;;;;;;17.11;67.40;99550.91;5060995;28;20056;-79
2022/10/04 13:01:25;;;;;;;3.08;1.70;;;;;;;17.22;63.97;99565.84;5050409;28;20579;-79
2022/10/04 13:04:24;;;;;;;2.28;1.05;;;;;;;17.21;64.46;99569.66;5069368;28;20051;-80
2022/10/04 13:07:08;;;;;;;3.70;1.20;;;;;;;17.12;63.47;99549.84;5024765;28;20063;-79
2022/10/04 13:09:46;;;;;;;3.45;1.23;;;;;;;17.21;64.49;99561.44;5054221;28;20153;-80
2022/10/04 13:12:28;;;;;;;3.95;1.30;;;;;;;17.31;61.91;99566.44;5057663;28;20051;-79
2022/10/04 13:15:09;;;;;;;3.60;1.33;;;;;;;17.46;63.14;99561.53;5063238;28;20132;-80
2022/10/04 13:17:42;;;;;;;;;;;;;;;17.58;63.11;99563.53;5054046;28;20048;-79
2022/10/04 13:20:25;;;;;;;3.78;1.17;;;;;;;17.58;63.46;99563.53;5062458;28;19931;-79
2022/10/04 13:23:03;;;;;;;5.10;1.17;;;;;;;17.56;62.57;99572.00;5069454;28;20051;-79
2022/10/04 13:25:44;;;;;;;2.35;1.13;;;;;;;17.64;64.37;99569.03;5070284;28;20051;-79
2022/10/04 13:28:23;;;;;;;3.50;1.20;;;;;;;17.48;61.70;99573.13;5062542;28;20040;-80
2022/10/04 13:30:55;;;;;;;2.45;1.25;;;;;;;17.61;63.38;99568.59;5067446;28;20051;-80
2022/10/04 13:33:29;;;;;;;2.20;1.00;;;;;;;17.82;63.63;99564.66;5062173;28;20060;-79
2022/10/04 13:36:03;;;;;;;3.25;1.20;;;;;;;17.87;64.03;99540.94;5069045;28;20052;-79
2022/10/04 13:39:15;;;;;;;2.00;1.10;;;;;;;18.03;62.59;99546.97;5072105;28;20044;-79
2022/10/04 13:42:06;;;;;;;4.28;1.30;;;;;;;17.99;61.54;99541.06;5069301;28;20501;-80
2022/10/04 13:44:53;;;;;;;2.38;1.00;;;;;;;18.07;58.80;99550.13;5069565;28;20048;-80
2022/10/04 13:47:53;;;;;;;2.85;1.00;;;;;;;18.08;62.31;99549.03;5066283;28;20121;-79
2022/10/04 13:50:39;;;;;;;4.38;1.33;;;;;;;17.85;60.00;99545.81;5065443;28;20067;-79
2022/10/04 13:56:36;;;;;;;3.67;1.40;;;;;;;18.02;60.25;99554.38;5055941;28;20502;-79
2022/10/04 13:59:13;;;;;;;2.92;1.17;;;;;;;17.97;60.05;99532.19;5064791;28;20055;-79
2022/10/04 14:02:12;;;;;;;3.22;1.10;;;;;;;18.09;59.94;99554.31;5064889;28;20110;-79
2022/10/04 14:05:30;;;;;;;7.20;1.13;;;;;;;18.16;58.76;99551.53;5063200;28;20052;-79
2022/10/04 14:08:24;;;;;;;4.63;1.27;;;;;;;18.26;59.10;99548.25;5037438;28;20403;-80
2022/10/04 14:11:22;;;;;;;3.35;1.40;;;;;;;18.26;60.46;99529.84;5067168;28;20128;-80
2022/10/04 14:14:12;;;;;;;3.25;1.25;;;;;;;18.31;58.55;99546.50;5063991;28;20053;-79
2022/10/04 14:17:06;;;;;;;3.38;1.10;;;;;;;18.37;58.17;99531.84;5064620;28;20395;-79
2022/10/04 14:20:01;;;;;;;3.40;1.08;;;;;;;18.36;58.44;99523.81;5062548;28;20049;-79
2022/10/04 14:22:55;;;;;;;3.45;0.88;;;;;;;18.36;58.68;99523.81;5068274;28;20049;-79
2022/10/04 14:25:57;;;;;;;1.92;1.30;;;;;;;18.48;58.30;99512.88;5064215;28;20514;-79
2022/10/04 14:28:49;;;;;;;8.25;1.25;;;;;;;18.49;57.35;99526.44;5065611;28;20053;-79
2022/10/04 14:31:35;;;;;;;4.40;1.23;;;;;;;18.48;57.58;99510.97;5070239;28;20044;-79
2022/10/04 14:34:29;;;;;;;1.95;1.20;;;;;;;18.67;57.99;99524.75;5064404;28;20053;-79
2022/10/04 14:37:37;;;;;;;1.60;0.98;;;;;;;18.54;55.89;99510.03;5053551;28;20055;-80
2022/10/04 14:40:32;;;;;;;7.22;1.27;;;;;;;18.64;55.44;99517.78;5054277;28;20055;-79
2022/10/04 14:43:41;;;;;;;5.53;0.98;;;;;;;18.58;54.81;99524.22;5061616;28;20152;-79
2022/10/04 14:46:18;;;;;;;4.00;0.80;;;;;;;18.60;55.24;99516.56;5066449;28;20119;-79
2022/10/04 14:49:01;;;;;;;1.77;1.00;;;;;;;18.55;54.72;99508.16;5069833;28;20056;-79
2022/10/04 14:51:55;;;;;;;5.43;1.20;;;;;;;18.65;55.53;99521.38;5067537;28;20080;-79
2022/10/04 14:54:36;;;;;;;9.02;1.95;;;;;;;18.70;54.65;99516.88;5061722;28;20063;-79
2022/10/04 14:57:06;;;;;;;5.93;1.30;;;;;;;18.65;52.80;99511.22;5061799;28;20144;-79
2022/10/04 14:59:58;;;;;;;5.28;1.00;;;;;;;18.69;53.56;99517.94;5067102;28;20045;-79
2022/10/04 15:02:50;;;;;;;2.25;1.00;;;;;;;18.83;53.49;99520.53;5068716;28;20503;-79
2022/10/04 15:05:43;;;;;;;1.27;0.73;;;;;;;18.86;52.58;99515.47;5061749;28;20041;-79
2022/10/04 15:08:44;;;;;;;3.13;0.90;;;;;;;18.71;52.43;99492.91;5068918;28;20053;-79
2022/10/04 15:11:16;;;;;;;6.93;1.13;;;;;;;18.77;54.78;99527.78;5061759;28;20052;-79
2022/10/04 15:13:54;;;;;;;4.22;1.00;;;;;;;18.59;54.67;99492.84;5067063;28;20048;-79
2022/10/04 15:16:36;;;;;;;4.43;1.38;;;;;;;18.64;54.90;99511.41;5069768;28;20469;-79
2022/10/04 15:19:10;;;;;;;1.50;0.95;;;;;;;18.65;55.19;99507.59;5066321;28;20476;-79
2022/10/04 15:21:51;;;;;;;4.32;0.80;;;;;;;18.61;53.88;99498.97;5069388;28;20479;-79
2022/10/04 15:24:28;;;;;;;3.33;1.10;;;;;;;18.65;55.02;99502.97;5060904;28;20052;-79
2022/10/04 15:27:18;;;;;;;4.80;1.05;;;;;;;18.47;56.75;99472.66;5069042;28;20263;-79
2022/10/04 15:29:57;;;;;;;2.20;1.08;;;;;;;18.45;57.07;99467.38;5049703;28;20248;-79
2022/10/04 15:32:31;;;;;;;3.17;0.95;;;;;;;18.54;57.58;99498.22;5067747;28;20060;-79
2022/10/04 15:35:11;;;;;;;5.90;1.00;;;;;;;18.56;56.01;99496.91;5061173;28;20183;-79
2022/10/04 15:37:43;;;;;;;1.73;1.00;;;;;;;18.42;56.21;99491.78;5068496;28;20049;-79
2022/10/04 15:40:25;;;;;;;3.10;1.30;;;;;;;18.22;57.54;99496.41;5064141;28;20063;-79
2022/10/04 15:43:06;;;;;;;4.28;1.10;;;;;;;17.95;57.98;99484.81;5068373;28;20049;-79
2022/10/04 15:45:52;;;;;;;1.90;0.90;;;;;;;17.82;58.69;99484.91;5069346;28;20555;-79
2022/10/04 15:48:47;;;;;;;5.65;1.00;;;;;;;17.77;58.83;99498.50;5061538;28;20513;-79
2022/10/04 15:51:20;;;;;;;4.82;1.17;;;;;;;17.71;59.28;99505.72;5066973;28;20480;-79
2022/10/04 15:54:14;;;;;;;2.70;1.27;;;;;;;17.65;59.50;99496.47;5062054;28;20045;-79
2022/10/04 15:56:52;;;;;;;2.67;1.02;;;;;;;17.52;59.26;99466.31;5062878;28;20059;-79
2022/10/04 15:59:50;;;;;;;6.85;1.60;;;;;;;17.47;59.06;99464.25;5065524;28;20123;-79
2022/10/04 16:02:45;;;;;;;2.50;1.17;;;;;;;17.48;59.57;99487.09;5058900;28;20500;-79
2022/10/04 16:05:21;;;;;;;4.10;1.13;;;;;;;17.15;60.76;99463.41;5067293;28;20036;-79
2022/10/04 16:08:22;;;;;;;3.88;1.02;;;;;;;16.95;62.06;99466.25;5066592;28;20484;-79
2022/10/04 16:11:12;;;;;;;2.08;0.90;;;;;;;16.81;64.26;99473.69;5061508;28;20051;-82
2022/10/04 16:13:48;;;;;;;3.00;1.17;;;;;;;16.54;66.36;99464.72;5065855;28;20056;-82
2022/10/04 16:16:40;;;;;;;10.65;1.27;;;;;;;16.41;68.00;99469.19;5065093;28;20045;-82
2022/10/04 16:19:19;;;;;;;4.60;1.13;;;;;;;16.17;70.42;99453.41;5066994;28;20085;-82
2022/10/04 16:21:52;;;;;;;2.63;1.05;;;;;;;16.09;71.32;99468.19;5065946;28;20131;-81
2022/10/04 16:24:44;;;;;;;1.63;1.05;;;;;;;16.01;71.97;99469.28;5066039;28;20078;-81
2022/10/04 16:27:44;;;;;;;7.82;1.15;;;;;;;15.76;72.23;99458.09;5060177;28;20396;-81
2022/10/04 16:30:27;;;;;;;4.57;1.10;;;;;;;15.68;72.67;99472.00;5059594;28;20045;-81
2022/10/04 16:33:30;;;;;;;2.63;1.02;;;;;;;15.58;74.18;99476.03;5066716;28;20041;-81
2022/10/04 16:36:09;;;;;;;5.22;1.17;;;;;;;15.44;75.48;99489.91;5062874;28;20048;-81
2022/10/04 16:39:57;;;;;;;2.65;1.20;;;;;;;15.27;78.12;99464.81;5062913;28;20109;-81
2022/10/04 16:41:39;;;;;;;2.70;1.10;;;;;;;14.91;80.48;99439.47;5055750;28;20076;-81
2022/10/04 16:44:22;;;;;;;7.43;1.17;;;;;;;14.75;80.00;99448.88;5071319;28;20554;-81
2022/10/04 16:46:52;;;;;;;5.15;1.42;;;;;;;14.79;78.13;99452.88;5072151;28;20063;-81
2022/10/04 16:49:26;;;;;;;5.20;1.58;;;;;;;14.79;78.52;99468.47;5067160;28;20061;-81
2022/10/04 16:52:19;;;;;;;3.13;1.17;;;;;;;14.62;80.92;99457.06;5054900;28;20063;-81
2022/10/04 16:55:18;;;;;;;1.92;1.58;;;;;;;14.42;82.95;99471.44;5051021;28;20122;-81
2022/10/04 16:57:46;;;;;;;1.52;1.23;;;;;;;14.29;84.26;99474.94;5048862;28;20052;-81
2022/10/04 17:00:33;;;;;;;3.70;1.20;;;;;;;14.29;86.86;99496.81;5070590;28;20059;-81
2022/10/04 17:03:20;;;;;;;5.47;1.42;;;;;;;13.97;88.27;99466.34;5070520;28;20511;-81
2022/10/04 17:06:11;;;;;;;5.40;1.45;;;;;;;13.83;89.37;99480.09;5071539;28;20048;-81
2022/10/04 17:08:52;;;;;;;2.40;1.30;;;;;;;13.76;92.08;99504.63;5068166;28;20056;-81
2022/10/04 17:11:56;;;;;;;2.42;1.30;;;;;;;13.48;94.03;99482.75;5072370;28;20048;-81
2022/10/04 17:14:50;;;;;;;2.22;1.27;;;;;;;13.41;95.54;99502.66;5064395;28;20049;-81
2022/10/04 17:17:24;;;;;;;4.40;1.70;;;;;;;13.20;98.87;99481.63;5066210;28;20648;-81
2022/10/04 17:19:56;;;;;;;4.00;1.63;;;;;;;13.10;100.00;99471.00;5069864;28;20465;-80
2022/10/04 17:22:32;;;;;;;5.68;1.48;;;;;;;13.13;100.00;99480.72;5069050;28;20052;-81
2022/10/04 17:25:18;;;;;;;4.22;2.00;;;;;;;13.10;100.00;99498.31;5069407;28;20044;-81
2022/10/04 17:27:48;;;;;;;3.97;2.40;;;;;;;12.95;100.00;99477.53;5068959;28;20496;-80
2022/10/04 17:30:18;;;;;;;3.90;2.55;;;;;;;12.74;100.00;99471.03;5068982;28;20048;-78
2022/10/04 17:32:50;;;;;;;;;;;;;;;12.80;100.00;99489.34;5071043;28;20110;-80
2022/10/04 17:35:46;;;;;;;4.95;1.40;;;;;;;12.73;100.00;99463.88;5069309;28;19920;-80
2022/10/04 17:38:19;;;;;;;3.65;1.42;;;;;;;12.56;100.00;99450.47;5069058;28;20048;-80
2022/10/04 17:40:55;;;;;;;4.63;1.60;;;;;;;12.67;100.00;99442.81;5070061;28;20087;-80
2022/10/04 17:43:33;;;;;;;2.05;1.33;;;;;;;12.60;100.00;99442.75;5069266;28;20055;-80
2022/10/04 17:46:10;;;;;;;4.22;1.67;;;;;;;12.61;100.00;99446.31;5056531;28;20040;-80
2022/10/04 17:57:21;;;;;;;38.85;15.75;;;;;;;12.69;100.00;99468.88;5060508;28;20048;-81
2022/10/04 17:59:51;;;;;;;11.25;4.95;;;;;;;12.73;100.00;99467.44;5066414;28;20125;-80
2022/10/04 18:02:24;;;;;;;4.72;2.60;;;;;;;12.68;100.00;99458.16;5065405;28;20496;-80
2022/10/04 18:04:55;;;;;;;4.47;2.10;;;;;;;12.62;100.00;99453.47;5069279;28;20095;-80
2022/10/04 18:07:27;;;;;;;6.32;1.60;;;;;;;12.78;100.00;99476.94;5066501;28;20070;-80
2022/10/04 18:09:58;;;;;;;2.40;1.70;;;;;;;12.75;100.00;99469.97;5068650;28;20488;-80
2022/10/04 18:12:29;;;;;;;7.63;2.40;;;;;;;12.52;100.00;99438.22;5068365;28;20049;-80
2022/10/04 18:15:06;;;;;;;5.40;3.13;;;;;;;12.53;100.00;99439.09;5069280;28;20052;-80
2022/10/04 18:17:38;;;;;;;5.03;2.65;;;;;;;12.52;100.00;99442.84;5064601;28;20518;-80
2022/10/04 18:20:24;;;;;;;5.68;3.30;;;;;;;12.57;100.00;99454.88;5068096;28;20048;-80
2022/10/04 18:22:59;;;;;;;5.18;2.97;;;;;;;12.66;100.00;99473.84;5066492;28;20044;-80
2022/10/04 18:25:29;;;;;;;8.88;3.22;;;;;;;12.56;100.00;99446.91;5067886;28;20184;-80
2022/10/04 18:28:05;;;;;;;3.03;2.13;;;;;;;12.55;100.00;99459.66;5068795;28;20135;-80
2022/10/04 18:30:33;;;;;;;5.18;2.97;;;;;;;12.58;100.00;99480.25;5068961;28;20044;-80
2022/10/04 18:33:00;;;;;;;5.97;2.72;;;;;;;12.52;100.00;99472.84;5065656;28;20110;-79
2022/10/04 18:35:29;;;;;;;4.45;2.38;;;;;;;12.48;100.00;99476.97;5060713;28;20055;-79
2022/10/04 18:38:15;;;;;;;5.68;2.28;;;;;;;12.53;100.00;99488.19;5047775;28;20110;-79
2022/10/04 18:40:54;;;;;;;5.10;2.25;;;;;;;12.42;100.00;99492.25;5066426;28;20128;-80
2022/10/04 18:43:26;;;;;;;4.00;2.33;;;;;;;12.21;100.00;99468.47;5066999;28;20049;-79
2022/10/04 18:46:03;;;;;;;6.28;2.60;;;;;;;12.18;100.00;99485.19;5064608;28;20136;-79
2022/10/04 18:48:44;;;;;;;7.20;3.60;;;;;;;12.24;100.00;99500.78;5061303;28;20053;-79
2022/10/04 18:51:25;;;;;;;2.30;2.05;;;;;;;12.08;100.00;99482.72;5065874;28;20071;-79
2022/10/04 18:54:00;;;;;;;3.63;2.28;;;;;;;12.08;100.00;99485.47;5066323;28;20052;-79
2022/10/04 18:56:28;;;;;;;5.30;3.15;;;;;;;12.11;100.00;99484.25;5067663;28;20462;-79
2022/10/04 19:02:10;;;;;;;4.45;2.80;;;;;;;12.12;100.00;99491.38;5066616;28;20048;-80
2022/10/04 19:04:53;;;;;;;5.45;3.05;;;;;;;12.07;100.00;99482.91;5063314;28;20059;-80
2022/10/04 19:07:29;;;;;;;3.42;2.65;;;;;;;12.14;100.00;99490.16;5064616;28;20521;-79
2022/10/04 19:10:13;;;;;;;3.47;2.60;;;;;;;12.16;100.00;99501.75;5068436;28;20056;-79
2022/10/04 19:12:51;;;;;;;6.53;3.00;;;;;;;12.03;100.00;99486.03;5064833;28;20053;-79
2022/10/04 19:15:31;;;;;;;5.03;2.33;;;;;;;12.13;100.00;99498.53;5051668;28;20336;-79
2022/10/04 19:18:04;;;;;;;;;;;;;;;12.12;100.00;99518.63;5064356;28;20044;-80
2022/10/04 19:20:39;;;;;;;7.85;3.47;;;;;;;11.99;100.00;99514.66;5064830;28;19926;-79
2022/10/04 19:23:18;;;;;;;5.60;2.47;;;;;;;11.90;100.00;99501.28;5065615;28;20049;-79
2022/10/04 19:25:49;;;;;;;5.07;2.35;;;;;;;11.77;100.00;99488.28;5066229;28;20396;-79
2022/10/04 19:28:20;;;;;;;7.32;2.67;;;;;;;11.76;100.00;99489.34;5061829;28;20045;-79
2022/10/04 19:31:10;;;;;;;4.15;2.30;;;;;;;11.75;100.00;99502.09;5063399;28;20132;-79
2022/10/04 19:33:48;;;;;;;5.90;2.50;;;;;;;11.75;100.00;99509.44;5066745;28;20041;-79
2022/10/04 19:36:31;;;;;;;5.32;2.60;;;;;;;11.78;100.00;99515.34;5062159;28;20041;-78
2022/10/04 19:39:07;;;;;;;3.35;2.30;;;;;;;11.59;100.00;99502.22;5065719;28;20539;-79
2022/10/04 19:41:54;;;;;;;3.55;2.17;;;;;;;11.73;100.00;99523.22;5065276;28;20545;-79
2022/10/04 19:44:43;;;;;;;4.07;2.72;;;;;;;11.58;100.00;99508.72;5064706;28;20400;-79
2022/10/04 19:47:31;;;;;;;5.60;2.38;;;;;;;11.71;100.00;99538.88;5061657;28;20516;-79
2022/10/04 19:50:05;;;;;;;7.57;2.38;;;;;;;11.52;100.00;99518.47;5065169;28;20052;-79
2022/10/04 19:52:39;;;;;;;4.82;2.60;;;;;;;11.48;100.00;99508.97;5064578;28;20569;-79
2022/10/04 19:55:19;;;;;;;5.13;2.38;;;;;;;11.58;100.00;99527.78;5064825;28;20075;-79
2022/10/04 19:57:53;;;;;;;4.60;2.70;;;;;;;11.61;100.00;99533.72;5065382;28;20448;-79
2022/10/04 20:00:20;;;;;;;3.38;2.40;;;;;;;11.43;100.00;99520.41;5066662;28;20055;-79
2022/10/04 20:02:47;;;;;;;5.78;2.47;;;;;;;11.61;100.00;99544.59;5066759;28;20041;-79
2022/10/04 20:05:19;;;;;;;2.58;2.25;;;;;;;11.56;100.00;99551.63;5066745;28;20043;-79
2022/10/04 20:07:49;;;;;;;3.38;2.25;;;;;;;11.45;100.00;99545.56;5061682;28;20585;-79
2022/10/04 20:10:28;;;;;;;5.07;2.30;;;;;;;11.48;100.00;99553.38;5065252;28;20127;-79
2022/10/04 20:13:16;;;;;;;2.97;2.22;;;;;;;11.43;100.00;99549.50;5059154;28;20076;-79
2022/10/04 20:15:46;;;;;;;5.70;2.17;;;;;;;11.38;100.00;99562.81;5065072;28;20492;-79
2022/10/04 20:18:51;;;;;;;6.30;2.65;;;;;;;11.32;100.00;99572.53;5065920;28;20047;-80
2022/10/04 20:21:26;;;;;;;2.35;2.00;;;;;;;11.31;100.00;99557.25;5059881;28;20064;-79
2022/10/04 20:23:56;;;;;;;9.63;2.60;;;;;;;11.27;100.00;99570.34;5064429;28;20048;-79
2022/10/04 20:26:54;;;;;;;5.57;2.67;;;;;;;11.05;100.00;99543.94;5065381;28;20063;-80
2022/10/04 20:30:02;;;;;;;2.72;2.20;;;;;;;11.18;100.00;99567.88;5060905;28;20052;-80
2022/10/04 20:33:01;;;;;;;3.25;2.10;;;;;;;11.09;100.00;99569.78;5062295;28;20095;-79
2022/10/04 20:36:11;;;;;;;5.57;2.63;;;;;;;11.03;100.00;99571.34;5064892;28;20079;-80
2022/10/04 20:38:58;;;;;;;7.18;3.30;;;;;;;10.93;100.00;99557.97;5057850;28;20048;-80
2022/10/04 20:45:17;;;;;;;4.43;2.13;;;;;;;10.85;100.00;99559.88;5060021;28;20202;-80
2022/10/04 20:47:46;;;;;;;5.15;2.78;;;;;;;10.92;100.00;99582.63;5066084;28;20052;-80
2022/10/04 20:50:28;;;;;;;5.43;2.40;;;;;;;10.78;100.00;99586.94;5067781;28;20068;-80
2022/10/04 20:52:57;;;;;;;3.88;2.33;;;;;;;10.61;100.00;99586.13;5064363;28;20047;-80
2022/10/04 20:55:27;;;;;;;3.85;1.95;;;;;;;10.56;100.00;99588.53;5065093;28;20051;-80
2022/10/04 20:57:59;;;;;;;5.90;2.90;;;;;;;10.42;100.00;99566.47;5066652;28;20481;-80
2022/10/04 21:00:33;;;;;;;5.97;2.20;;;;;;;10.35;100.00;99575.50;5063674;28;20121;-80
2022/10/04 21:03:08;;;;;;;5.55;2.20;;;;;;;10.36;100.00;99610.66;5068761;28;20048;-79
2022/10/04 21:05:37;;;;;;;8.48;2.70;;;;;;;10.24;100.00;99607.41;5062539;28;20048;-79
2022/10/04 21:08:24;;;;;;;7.22;2.83;;;;;;;10.15;100.00;99605.75;5060011;28;20056;-79
2022/10/04 21:11:11;;;;;;;5.85;2.40;;;;;;;10.30;100.00;99622.19;5069175;28;20050;-79
2022/10/04 21:13:41;;;;;;;5.70;2.53;;;;;;;10.18;100.00;99612.72;5068642;28;20507;-79
2022/10/04 21:16:08;;;;;;;7.97;2.35;;;;;;;10.19;100.00;99603.50;5061181;28;20056;-79
2022/10/04 21:18:34;;;;;;;3.50;2.28;;;;;;;10.24;100.00;99609.31;5059533;28;20055;-79
2022/10/04 21:21:03;;;;;;;4.97;2.30;;;;;;;10.25;100.00;99616.41;5061529;28;20671;-79
2022/10/04 21:23:32;;;;;;;8.55;2.47;;;;;;;10.04;100.00;99600.63;5068949;28;20440;-79
2022/10/04 21:26:20;;;;;;;4.75;2.97;;;;;;;9.92;100.00;99605.56;5064806;28;20045;-80
2022/10/04 21:28:47;;;;;;;3.13;2.42;;;;;;;9.93;100.00;99623.56;5053618;28;20059;-79
2022/10/04 21:31:16;;;;;;;3.03;2.53;;;;;;;9.74;100.00;99603.03;5072506;28;20126;-80
2022/10/04 21:33:42;;;;;;;6.35;3.15;;;;;;;9.76;100.00;99598.28;5056047;28;20048;-79
2022/10/04 21:36:10;;;;;;;8.65;3.40;;;;;;;9.80;100.00;99607.78;5067741;28;20055;-79